sensor_id;sensor_type;location;lat;lon;timestamp;P1;durP1;ratioP1;P2;durP2;ratioP2
69900;SDS011;57183;50.930;5.406;2023-06-04T00:00:04;1.75;;;0.73;;
69900;SDS011;57183;50.930;5.406;2023-06-04T00:02:30;0.82;;;0.60;;
69900;SDS011;57183;50.930;5.406;2023-06-04T00:04:56;2.88;;;1.05;;
69900;SDS011;57183;50.930;5.406;2023-06-04T00:07:21;1.20;;;0.70;;
69900;SDS011;57183;50.930;5.406;2023-06-04T00:09:47;3.95;;;1.13;;
69900;SDS011;57183;50.930;5.406;2023-06-04T00:12:13;1.38;;;0.60;;
69900;SDS011;57183;50.930;5.406;2023-06-04T00:14:39;4.10;;;0.80;;
69900;SDS011;57183;50.930;5.406;2023-06-04T00:17:06;1.92;;;0.80;;
69900;SDS011;57183;50.930;5.406;2023-06-04T00:19:32;2.25;;;0.90;;
69900;SDS011;57183;50.930;5.406;2023-06-04T00:21:59;1.48;;;0.50;;
69900;SDS011;57183;50.930;5.406;2023-06-04T00:24:24;2.92;;;0.98;;
69900;SDS011;57183;50.930;5.406;2023-06-04T00:26:50;1.77;;;0.93;;
69900;SDS011;57183;50.930;5.406;2023-06-04T00:29:16;2.72;;;0.75;;
69900;SDS011;57183;50.930;5.406;2023-06-04T00:31:41;1.00;;;0.68;;
69900;SDS011;57183;50.930;5.406;2023-06-04T00:34:07;1.48;;;0.88;;
69900;SDS011;57183;50.930;5.406;2023-06-04T00:36:33;1.25;;;0.70;;
69900;SDS011;57183;50.930;5.406;2023-06-04T00:38:58;1.20;;;0.50;;
69900;SDS011;57183;50.930;5.406;2023-06-04T00:41:24;1.38;;;0.95;;
69900;SDS011;57183;50.930;5.406;2023-06-04T00:43:50;1.45;;;0.80;;
69900;SDS011;57183;50.930;5.406;2023-06-04T00:46:27;1.95;;;0.80;;
69900;SDS011;57183;50.930;5.406;2023-06-04T00:48:53;0.88;;;0.60;;
69900;SDS011;57183;50.930;5.406;2023-06-04T00:51:20;1.60;;;0.82;;
69900;SDS011;57183;50.930;5.406;2023-06-04T00:53:46;1.63;;;0.73;;
69900;SDS011;57183;50.930;5.406;2023-06-04T00:56:15;1.17;;;0.70;;
69900;SDS011;57183;50.930;5.406;2023-06-04T00:58:41;3.28;;;0.73;;
69900;SDS011;57183;50.930;5.406;2023-06-04T01:01:10;2.00;;;0.88;;
69900;SDS011;57183;50.930;5.406;2023-06-04T01:03:42;1.30;;;0.68;;
69900;SDS011;57183;50.930;5.406;2023-06-04T01:08:49;1.20;;;0.60;;
69900;SDS011;57183;50.930;5.406;2023-06-04T01:11:30;1.25;;;0.90;;
69900;SDS011;57183;50.930;5.406;2023-06-04T01:14:00;2.53;;;0.90;;
69900;SDS011;57183;50.930;5.406;2023-06-04T01:16:27;1.83;;;0.70;;
69900;SDS011;57183;50.930;5.406;2023-06-04T01:18:56;1.33;;;0.82;;
69900;SDS011;57183;50.930;5.406;2023-06-04T01:21:27;1.05;;;0.80;;
69900;SDS011;57183;50.930;5.406;2023-06-04T01:23:56;1.48;;;0.88;;
69900;SDS011;57183;50.930;5.406;2023-06-04T01:26:26;0.95;;;0.73;;
69900;SDS011;57183;50.930;5.406;2023-06-04T01:28:53;1.30;;;0.90;;
69900;SDS011;57183;50.930;5.406;2023-06-04T01:31:20;1.10;;;0.70;;
69900;SDS011;57183;50.930;5.406;2023-06-04T01:33:50;1.42;;;0.80;;
69900;SDS011;57183;50.930;5.406;2023-06-04T01:36:20;4.00;;;0.90;;
69900;SDS011;57183;50.930;5.406;2023-06-04T01:38:46;2.70;;;0.82;;
69900;SDS011;57183;50.930;5.406;2023-06-04T01:41:12;1.70;;;1.10;;
69900;SDS011;57183;50.930;5.406;2023-06-04T01:43:38;1.40;;;0.77;;
69900;SDS011;57183;50.930;5.406;2023-06-04T01:46:03;4.55;;;1.30;;
69900;SDS011;57183;50.930;5.406;2023-06-04T01:48:29;2.53;;;0.80;;
69900;SDS011;57183;50.930;5.406;2023-06-04T01:50:57;3.92;;;0.88;;
69900;SDS011;57183;50.930;5.406;2023-06-04T01:53:22;1.60;;;1.08;;
69900;SDS011;57183;50.930;5.406;2023-06-04T01:55:48;1.25;;;0.90;;
69900;SDS011;57183;50.930;5.406;2023-06-04T01:58:15;3.15;;;1.05;;
69900;SDS011;57183;50.930;5.406;2023-06-04T02:00:43;2.17;;;1.10;;
69900;SDS011;57183;50.930;5.406;2023-06-04T02:03:09;1.50;;;0.75;;
69900;SDS011;57183;50.930;5.406;2023-06-04T02:05:35;3.85;;;0.90;;
69900;SDS011;57183;50.930;5.406;2023-06-04T02:08:01;2.50;;;0.98;;
69900;SDS011;57183;50.930;5.406;2023-06-04T02:10:29;1.45;;;1.00;;
69900;SDS011;57183;50.930;5.406;2023-06-04T02:13:00;2.00;;;1.10;;
69900;SDS011;57183;50.930;5.406;2023-06-04T02:15:30;3.47;;;1.23;;
69900;SDS011;57183;50.930;5.406;2023-06-04T02:17:57;1.83;;;1.08;;
69900;SDS011;57183;50.930;5.406;2023-06-04T02:20:27;5.13;;;0.93;;
69900;SDS011;57183;50.930;5.406;2023-06-04T02:22:54;3.42;;;1.23;;
69900;SDS011;57183;50.930;5.406;2023-06-04T02:25:20;2.95;;;1.13;;
69900;SDS011;57183;50.930;5.406;2023-06-04T02:27:46;2.33;;;0.98;;
69900;SDS011;57183;50.930;5.406;2023-06-04T02:30:12;2.67;;;1.13;;
69900;SDS011;57183;50.930;5.406;2023-06-04T02:32:38;2.10;;;1.20;;
69900;SDS011;57183;50.930;5.406;2023-06-04T02:35:04;3.72;;;1.13;;
69900;SDS011;57183;50.930;5.406;2023-06-04T02:37:30;2.85;;;1.10;;
69900;SDS011;57183;50.930;5.406;2023-06-04T02:39:55;1.90;;;1.00;;
69900;SDS011;57183;50.930;5.406;2023-06-04T02:42:21;3.22;;;1.48;;
69900;SDS011;57183;50.930;5.406;2023-06-04T02:44:47;1.92;;;1.17;;
69900;SDS011;57183;50.930;5.406;2023-06-04T02:47:12;1.45;;;1.10;;
69900;SDS011;57183;50.930;5.406;2023-06-04T02:49:38;3.08;;;1.13;;
69900;SDS011;57183;50.930;5.406;2023-06-04T02:52:04;4.18;;;1.27;;
69900;SDS011;57183;50.930;5.406;2023-06-04T02:54:30;1.83;;;1.48;;
69900;SDS011;57183;50.930;5.406;2023-06-04T02:56:55;3.80;;;1.50;;
69900;SDS011;57183;50.930;5.406;2023-06-04T02:59:21;2.63;;;1.23;;
69900;SDS011;57183;50.930;5.406;2023-06-04T03:01:47;3.97;;;1.30;;
69900;SDS011;57183;50.930;5.406;2023-06-04T03:04:13;2.10;;;1.10;;
69900;SDS011;57183;50.930;5.406;2023-06-04T03:06:40;2.80;;;1.38;;
69900;SDS011;57183;50.930;5.406;2023-06-04T03:09:09;3.08;;;1.17;;
69900;SDS011;57183;50.930;5.406;2023-06-04T03:11:36;1.27;;;0.88;;
69900;SDS011;57183;50.930;5.406;2023-06-04T03:14:02;3.03;;;1.05;;
69900;SDS011;57183;50.930;5.406;2023-06-04T03:16:27;1.70;;;1.23;;
69900;SDS011;57183;50.930;5.406;2023-06-04T03:18:53;4.78;;;1.30;;
69900;SDS011;57183;50.930;5.406;2023-06-04T03:21:19;2.72;;;1.38;;
69900;SDS011;57183;50.930;5.406;2023-06-04T03:23:44;2.35;;;1.45;;
69900;SDS011;57183;50.930;5.406;2023-06-04T03:26:10;4.03;;;1.20;;
69900;SDS011;57183;50.930;5.406;2023-06-04T03:28:38;3.15;;;1.48;;
69900;SDS011;57183;50.930;5.406;2023-06-04T03:31:03;3.10;;;1.20;;
69900;SDS011;57183;50.930;5.406;2023-06-04T03:33:29;1.90;;;1.30;;
69900;SDS011;57183;50.930;5.406;2023-06-04T03:35:55;3.17;;;1.10;;
69900;SDS011;57183;50.930;5.406;2023-06-04T03:38:24;2.22;;;1.10;;
69900;SDS011;57183;50.930;5.406;2023-06-04T03:40:50;2.28;;;1.20;;
69900;SDS011;57183;50.930;5.406;2023-06-04T03:43:18;2.97;;;1.50;;
69900;SDS011;57183;50.930;5.406;2023-06-04T03:45:44;1.42;;;1.10;;
69900;SDS011;57183;50.930;5.406;2023-06-04T03:48:09;2.85;;;1.25;;
69900;SDS011;57183;50.930;5.406;2023-06-04T03:50:36;2.40;;;1.30;;
69900;SDS011;57183;50.930;5.406;2023-06-04T03:53:01;3.10;;;1.45;;
69900;SDS011;57183;50.930;5.406;2023-06-04T03:55:30;1.75;;;1.05;;
69900;SDS011;57183;50.930;5.406;2023-06-04T03:57:57;2.22;;;1.38;;
69900;SDS011;57183;50.930;5.406;2023-06-04T04:00:23;1.90;;;1.35;;
69900;SDS011;57183;50.930;5.406;2023-06-04T04:02:48;2.72;;;1.50;;
69900;SDS011;57183;50.930;5.406;2023-06-04T04:05:15;1.75;;;1.27;;
69900;SDS011;57183;50.930;5.406;2023-06-04T04:07:41;4.20;;;1.10;;
69900;SDS011;57183;50.930;5.406;2023-06-04T04:10:06;5.68;;;1.25;;
69900;SDS011;57183;50.930;5.406;2023-06-04T04:12:32;5.07;;;1.40;;
69900;SDS011;57183;50.930;5.406;2023-06-04T04:14:58;3.67;;;1.20;;
69900;SDS011;57183;50.930;5.406;2023-06-04T04:17:24;1.50;;;1.10;;
69900;SDS011;57183;50.930;5.406;2023-06-04T04:19:50;1.88;;;1.27;;
69900;SDS011;57183;50.930;5.406;2023-06-04T04:22:16;3.53;;;1.33;;
69900;SDS011;57183;50.930;5.406;2023-06-04T04:24:42;2.45;;;1.45;;
69900;SDS011;57183;50.930;5.406;2023-06-04T04:27:08;2.30;;;1.35;;
69900;SDS011;57183;50.930;5.406;2023-06-04T04:29:37;2.35;;;1.52;;
69900;SDS011;57183;50.930;5.406;2023-06-04T04:32:03;1.83;;;1.27;;
69900;SDS011;57183;50.930;5.406;2023-06-04T04:34:36;3.60;;;1.25;;
69900;SDS011;57183;50.930;5.406;2023-06-04T04:37:04;4.53;;;1.60;;
69900;SDS011;57183;50.930;5.406;2023-06-04T04:39:33;2.28;;;1.10;;
69900;SDS011;57183;50.930;5.406;2023-06-04T04:41:59;5.13;;;0.95;;
69900;SDS011;57183;50.930;5.406;2023-06-04T04:44:25;2.67;;;1.35;;
69900;SDS011;57183;50.930;5.406;2023-06-04T04:46:51;2.42;;;1.83;;
69900;SDS011;57183;50.930;5.406;2023-06-04T04:49:16;1.77;;;1.40;;
69900;SDS011;57183;50.930;5.406;2023-06-04T04:51:42;2.78;;;1.30;;
69900;SDS011;57183;50.930;5.406;2023-06-04T04:54:08;3.22;;;1.50;;
69900;SDS011;57183;50.930;5.406;2023-06-04T04:56:33;2.80;;;1.20;;
69900;SDS011;57183;50.930;5.406;2023-06-04T04:59:00;1.17;;;1.00;;
69900;SDS011;57183;50.930;5.406;2023-06-04T05:01:26;3.17;;;1.42;;
69900;SDS011;57183;50.930;5.406;2023-06-04T05:03:51;3.80;;;1.75;;
69900;SDS011;57183;50.930;5.406;2023-06-04T05:06:17;3.25;;;1.60;;
69900;SDS011;57183;50.930;5.406;2023-06-04T05:08:43;3.50;;;1.35;;
69900;SDS011;57183;50.930;5.406;2023-06-04T05:11:08;4.93;;;1.25;;
69900;SDS011;57183;50.930;5.406;2023-06-04T05:13:35;2.53;;;1.60;;
69900;SDS011;57183;50.930;5.406;2023-06-04T05:16:01;2.53;;;1.48;;
69900;SDS011;57183;50.930;5.406;2023-06-04T05:18:34;2.15;;;1.60;;
69900;SDS011;57183;50.930;5.406;2023-06-04T05:21:05;2.33;;;1.55;;
69900;SDS011;57183;50.930;5.406;2023-06-04T05:23:32;3.08;;;1.48;;
69900;SDS011;57183;50.930;5.406;2023-06-04T05:26:02;6.75;;;1.63;;
69900;SDS011;57183;50.930;5.406;2023-06-04T05:28:29;2.33;;;1.45;;
69900;SDS011;57183;50.930;5.406;2023-06-04T05:30:58;4.15;;;1.60;;
69900;SDS011;57183;50.930;5.406;2023-06-04T05:33:26;3.28;;;1.38;;
69900;SDS011;57183;50.930;5.406;2023-06-04T05:35:53;4.38;;;1.33;;
69900;SDS011;57183;50.930;5.406;2023-06-04T05:38:19;2.75;;;1.38;;
69900;SDS011;57183;50.930;5.406;2023-06-04T05:40:45;3.65;;;1.75;;
69900;SDS011;57183;50.930;5.406;2023-06-04T05:43:11;6.97;;;1.73;;
69900;SDS011;57183;50.930;5.406;2023-06-04T05:45:37;2.90;;;1.30;;
69900;SDS011;57183;50.930;5.406;2023-06-04T05:48:03;2.28;;;1.55;;
69900;SDS011;57183;50.930;5.406;2023-06-04T05:50:30;3.00;;;1.55;;
69900;SDS011;57183;50.930;5.406;2023-06-04T05:52:56;1.85;;;1.35;;
69900;SDS011;57183;50.930;5.406;2023-06-04T05:55:22;4.28;;;1.58;;
69900;SDS011;57183;50.930;5.406;2023-06-04T05:57:48;3.90;;;1.50;;
69900;SDS011;57183;50.930;5.406;2023-06-04T06:00:17;1.80;;;1.20;;
69900;SDS011;57183;50.930;5.406;2023-06-04T06:02:43;2.13;;;1.08;;
69900;SDS011;57183;50.930;5.406;2023-06-04T06:05:08;3.25;;;1.60;;
69900;SDS011;57183;50.930;5.406;2023-06-04T06:07:34;2.47;;;1.52;;
69900;SDS011;57183;50.930;5.406;2023-06-04T06:10:00;2.80;;;1.38;;
69900;SDS011;57183;50.930;5.406;2023-06-04T06:12:26;2.35;;;1.35;;
69900;SDS011;57183;50.930;5.406;2023-06-04T06:14:52;4.40;;;1.65;;
69900;SDS011;57183;50.930;5.406;2023-06-04T06:17:18;3.75;;;1.70;;
69900;SDS011;57183;50.930;5.406;2023-06-04T06:19:43;2.35;;;1.40;;
69900;SDS011;57183;50.930;5.406;2023-06-04T06:22:09;4.18;;;1.70;;
69900;SDS011;57183;50.930;5.406;2023-06-04T06:24:35;3.28;;;1.50;;
69900;SDS011;57183;50.930;5.406;2023-06-04T06:27:01;6.05;;;1.55;;
69900;SDS011;57183;50.930;5.406;2023-06-04T06:29:26;2.60;;;1.45;;
69900;SDS011;57183;50.930;5.406;2023-06-04T06:31:52;2.03;;;1.58;;
69900;SDS011;57183;50.930;5.406;2023-06-04T06:34:18;1.95;;;1.30;;
69900;SDS011;57183;50.930;5.406;2023-06-04T06:36:43;3.50;;;1.40;;
69900;SDS011;57183;50.930;5.406;2023-06-04T06:39:09;3.17;;;1.40;;
69900;SDS011;57183;50.930;5.406;2023-06-04T06:41:36;2.60;;;1.40;;
69900;SDS011;57183;50.930;5.406;2023-06-04T06:44:03;3.72;;;1.50;;
69900;SDS011;57183;50.930;5.406;2023-06-04T06:46:29;2.70;;;1.58;;
69900;SDS011;57183;50.930;5.406;2023-06-04T06:48:55;2.63;;;1.42;;
69900;SDS011;57183;50.930;5.406;2023-06-04T06:51:21;2.33;;;1.27;;
69900;SDS011;57183;50.930;5.406;2023-06-04T06:53:48;4.43;;;1.23;;
69900;SDS011;57183;50.930;5.406;2023-06-04T06:56:15;4.45;;;1.55;;
69900;SDS011;57183;50.930;5.406;2023-06-04T06:58:40;1.17;;;1.08;;
69900;SDS011;57183;50.930;5.406;2023-06-04T07:01:06;2.25;;;1.60;;
69900;SDS011;57183;50.930;5.406;2023-06-04T07:03:32;6.28;;;1.20;;
69900;SDS011;57183;50.930;5.406;2023-06-04T07:05:58;2.40;;;1.45;;
69900;SDS011;57183;50.930;5.406;2023-06-04T07:08:23;3.05;;;1.10;;
69900;SDS011;57183;50.930;5.406;2023-06-04T07:10:49;2.47;;;1.23;;
69900;SDS011;57183;50.930;5.406;2023-06-04T07:13:15;2.53;;;1.20;;
69900;SDS011;57183;50.930;5.406;2023-06-04T07:15:41;3.25;;;1.40;;
69900;SDS011;57183;50.930;5.406;2023-06-04T07:18:06;4.32;;;1.30;;
69900;SDS011;57183;50.930;5.406;2023-06-04T07:20:32;2.33;;;1.00;;
69900;SDS011;57183;50.930;5.406;2023-06-04T07:22:58;3.28;;;1.17;;
69900;SDS011;57183;50.930;5.406;2023-06-04T07:25:23;2.10;;;1.00;;
69900;SDS011;57183;50.930;5.406;2023-06-04T07:27:50;1.80;;;1.20;;
69900;SDS011;57183;50.930;5.406;2023-06-04T07:30:16;1.63;;;1.00;;
69900;SDS011;57183;50.930;5.406;2023-06-04T07:32:49;2.28;;;1.25;;
69900;SDS011;57183;50.930;5.406;2023-06-04T07:35:15;2.47;;;1.40;;
69900;SDS011;57183;50.930;5.406;2023-06-04T07:37:41;1.98;;;1.00;;
69900;SDS011;57183;50.930;5.406;2023-06-04T07:40:10;2.30;;;1.30;;
69900;SDS011;57183;50.930;5.406;2023-06-04T07:42:36;9.27;;;1.38;;
69900;SDS011;57183;50.930;5.406;2023-06-04T07:45:02;2.70;;;1.08;;
69900;SDS011;57183;50.930;5.406;2023-06-04T07:47:29;1.63;;;0.80;;
69900;SDS011;57183;50.930;5.406;2023-06-04T08:03:51;4.47;;;1.35;;
69900;SDS011;57183;50.930;5.406;2023-06-04T08:06:17;2.40;;;1.10;;
69900;SDS011;57183;50.930;5.406;2023-06-04T08:08:43;3.00;;;0.80;;
69900;SDS011;57183;50.930;5.406;2023-06-04T08:11:13;1.48;;;1.00;;
69900;SDS011;57183;50.930;5.406;2023-06-04T08:13:40;3.28;;;0.80;;
69900;SDS011;57183;50.930;5.406;2023-06-04T08:16:06;4.00;;;1.52;;
69900;SDS011;57183;50.930;5.406;2023-06-04T08:18:37;1.98;;;1.35;;
69900;SDS011;57183;50.930;5.406;2023-06-04T08:33:59;16.70;;;5.10;;
69900;SDS011;57183;50.930;5.406;2023-06-04T08:43:02;19.50;;;8.52;;
69900;SDS011;57183;50.930;5.406;2023-06-04T08:45:29;6.18;;;4.05;;
69900;SDS011;57183;50.930;5.406;2023-06-04T08:47:58;9.25;;;3.15;;
69900;SDS011;57183;50.930;5.406;2023-06-04T08:50:25;6.75;;;3.90;;
69900;SDS011;57183;50.930;5.406;2023-06-04T08:52:52;6.30;;;3.60;;
69900;SDS011;57183;50.930;5.406;2023-06-04T08:55:19;6.93;;;4.47;;
69900;SDS011;57183;50.930;5.406;2023-06-04T08:57:45;8.88;;;4.20;;
69900;SDS011;57183;50.930;5.406;2023-06-04T09:00:14;3.15;;;1.73;;
69900;SDS011;57183;50.930;5.406;2023-06-04T09:02:40;2.95;;;1.25;;
69900;SDS011;57183;50.930;5.406;2023-06-04T09:05:06;4.68;;;1.40;;
69900;SDS011;57183;50.930;5.406;2023-06-04T09:07:36;2.25;;;1.20;;
69900;SDS011;57183;50.930;5.406;2023-06-04T09:10:07;4.65;;;1.17;;
69900;SDS011;57183;50.930;5.406;2023-06-04T09:12:35;3.00;;;1.05;;
69900;SDS011;57183;50.930;5.406;2023-06-04T09:15:03;1.48;;;0.98;;
69900;SDS011;57183;50.930;5.406;2023-06-04T09:17:28;2.08;;;1.30;;
69900;SDS011;57183;50.930;5.406;2023-06-04T09:19:54;3.35;;;1.10;;
69900;SDS011;57183;50.930;5.406;2023-06-04T09:22:30;2.78;;;1.38;;
69900;SDS011;57183;50.930;5.406;2023-06-04T09:25:01;2.13;;;1.05;;
69900;SDS011;57183;50.930;5.406;2023-06-04T09:27:36;2.25;;;1.02;;
69900;SDS011;57183;50.930;5.406;2023-06-04T09:30:03;2.20;;;1.07;;
69900;SDS011;57183;50.930;5.406;2023-06-04T09:32:29;1.67;;;1.10;;
69900;SDS011;57183;50.930;5.406;2023-06-04T09:35:18;2.47;;;1.17;;
69900;SDS011;57183;50.930;5.406;2023-06-04T09:37:54;1.63;;;0.85;;
69900;SDS011;57183;50.930;5.406;2023-06-04T09:40:21;1.67;;;1.10;;
69900;SDS011;57183;50.930;5.406;2023-06-04T09:42:48;2.80;;;1.40;;
69900;SDS011;57183;50.930;5.406;2023-06-04T09:45:28;3.03;;;1.27;;
69900;SDS011;57183;50.930;5.406;2023-06-04T09:47:56;2.25;;;0.93;;
69900;SDS011;57183;50.930;5.406;2023-06-04T09:50:30;2.55;;;1.35;;
69900;SDS011;57183;50.930;5.406;2023-06-04T09:52:58;2.95;;;1.25;;
69900;SDS011;57183;50.930;5.406;2023-06-04T09:55:24;3.28;;;1.58;;
69900;SDS011;57183;50.930;5.406;2023-06-04T09:57:51;2.38;;;1.33;;
69900;SDS011;57183;50.930;5.406;2023-06-04T10:00:18;3.35;;;0.80;;
69900;SDS011;57183;50.930;5.406;2023-06-04T10:02:46;2.03;;;1.05;;
69900;SDS011;57183;50.930;5.406;2023-06-04T10:05:12;1.42;;;1.00;;
69900;SDS011;57183;50.930;5.406;2023-06-04T10:07:44;1.48;;;0.82;;
69900;SDS011;57183;50.930;5.406;2023-06-04T10:10:15;2.88;;;1.10;;
69900;SDS011;57183;50.930;5.406;2023-06-04T10:12:43;2.88;;;1.10;;
69900;SDS011;57183;50.930;5.406;2023-06-04T10:15:11;1.63;;;0.85;;
69900;SDS011;57183;50.930;5.406;2023-06-04T10:17:38;2.85;;;1.98;;
69900;SDS011;57183;50.930;5.406;2023-06-04T10:20:04;2.22;;;1.00;;
69900;SDS011;57183;50.930;5.406;2023-06-04T10:22:33;1.50;;;1.20;;
69900;SDS011;57183;50.930;5.406;2023-06-04T10:25:03;3.22;;;1.20;;
69900;SDS011;57183;50.930;5.406;2023-06-04T10:27:32;2.67;;;1.00;;
69900;SDS011;57183;50.930;5.406;2023-06-04T10:30:00;1.63;;;1.05;;
69900;SDS011;57183;50.930;5.406;2023-06-04T10:32:28;2.88;;;1.05;;
69900;SDS011;57183;50.930;5.406;2023-06-04T10:34:54;2.08;;;1.20;;
69900;SDS011;57183;50.930;5.406;2023-06-04T10:37:22;1.83;;;1.00;;
69900;SDS011;57183;50.930;5.406;2023-06-04T10:39:53;2.38;;;1.30;;
69900;SDS011;57183;50.930;5.406;2023-06-04T10:42:22;2.55;;;1.65;;
69900;SDS011;57183;50.930;5.406;2023-06-04T10:44:52;2.42;;;1.20;;
69900;SDS011;57183;50.930;5.406;2023-06-04T10:47:23;12.23;;;7.70;;
69900;SDS011;57183;50.930;5.406;2023-06-04T10:49:50;11.55;;;9.57;;
69900;SDS011;57183;50.930;5.406;2023-06-04T10:52:17;7.32;;;5.38;;
69900;SDS011;57183;50.930;5.406;2023-06-04T10:54:44;6.35;;;4.10;;
69900;SDS011;57183;50.930;5.406;2023-06-04T10:57:14;7.07;;;3.85;;
69900;SDS011;57183;50.930;5.406;2023-06-04T10:59:42;4.78;;;4.28;;
69900;SDS011;57183;50.930;5.406;2023-06-04T11:02:19;4.55;;;2.47;;
69900;SDS011;57183;50.930;5.406;2023-06-04T11:04:45;4.07;;;1.73;;
69900;SDS011;57183;50.930;5.406;2023-06-04T11:07:11;2.28;;;1.40;;
69900;SDS011;57183;50.930;5.406;2023-06-04T11:09:38;2.67;;;1.77;;
69900;SDS011;57183;50.930;5.406;2023-06-04T11:12:13;2.70;;;1.27;;
69900;SDS011;57183;50.930;5.406;2023-06-04T11:14:39;3.72;;;1.90;;
69900;SDS011;57183;50.930;5.406;2023-06-04T11:17:11;2.83;;;1.10;;
69900;SDS011;57183;50.930;5.406;2023-06-04T11:19:37;2.40;;;1.00;;
69900;SDS011;57183;50.930;5.406;2023-06-04T11:22:03;2.03;;;1.30;;
69900;SDS011;57183;50.930;5.406;2023-06-04T11:24:30;2.17;;;1.27;;
69900;SDS011;57183;50.930;5.406;2023-06-04T11:26:57;2.13;;;1.10;;
69900;SDS011;57183;50.930;5.406;2023-06-04T11:29:24;3.55;;;1.70;;
69900;SDS011;57183;50.930;5.406;2023-06-04T11:31:50;2.70;;;0.98;;
69900;SDS011;57183;50.930;5.406;2023-06-04T11:34:25;8.30;;;1.98;;
69900;SDS011;57183;50.930;5.406;2023-06-04T11:36:52;2.00;;;1.00;;
69900;SDS011;57183;50.930;5.406;2023-06-04T11:39:18;1.80;;;1.15;;
69900;SDS011;57183;50.930;5.406;2023-06-04T11:41:44;1.80;;;0.93;;
69900;SDS011;57183;50.930;5.406;2023-06-04T11:44:11;4.30;;;1.00;;
69900;SDS011;57183;50.930;5.406;2023-06-04T11:46:43;1.73;;;1.20;;
69900;SDS011;57183;50.930;5.406;2023-06-04T11:49:15;12.77;;;10.95;;
69900;SDS011;57183;50.930;5.406;2023-06-04T11:51:49;5.32;;;3.35;;
69900;SDS011;57183;50.930;5.406;2023-06-04T11:54:16;6.55;;;4.60;;
69900;SDS011;57183;50.930;5.406;2023-06-04T11:56:43;5.03;;;2.65;;
69900;SDS011;57183;50.930;5.406;2023-06-04T11:59:09;8.00;;;4.43;;
69900;SDS011;57183;50.930;5.406;2023-06-04T12:01:42;3.33;;;1.33;;
69900;SDS011;57183;50.930;5.406;2023-06-04T12:04:29;3.88;;;1.92;;
69900;SDS011;57183;50.930;5.406;2023-06-04T12:06:56;2.80;;;1.40;;
69900;SDS011;57183;50.930;5.406;2023-06-04T12:09:28;2.65;;;1.17;;
69900;SDS011;57183;50.930;5.406;2023-06-04T12:12:05;1.70;;;1.02;;
69900;SDS011;57183;50.930;5.406;2023-06-04T12:14:32;3.17;;;1.38;;
69900;SDS011;57183;50.930;5.406;2023-06-04T12:16:59;3.63;;;1.40;;
69900;SDS011;57183;50.930;5.406;2023-06-04T12:19:46;2.22;;;1.55;;
69900;SDS011;57183;50.930;5.406;2023-06-04T12:22:15;2.25;;;1.13;;
69900;SDS011;57183;50.930;5.406;2023-06-04T12:27:24;1.63;;;0.90;;
69900;SDS011;57183;50.930;5.406;2023-06-04T12:30:01;1.90;;;0.80;;
69900;SDS011;57183;50.930;5.406;2023-06-04T12:32:29;1.45;;;1.00;;
69900;SDS011;57183;50.930;5.406;2023-06-04T12:34:55;4.05;;;0.90;;
69900;SDS011;57183;50.930;5.406;2023-06-04T12:37:24;2.47;;;1.00;;
69900;SDS011;57183;50.930;5.406;2023-06-04T12:39:53;1.83;;;0.90;;
69900;SDS011;57183;50.930;5.406;2023-06-04T12:42:20;2.03;;;1.10;;
69900;SDS011;57183;50.930;5.406;2023-06-04T12:44:46;2.85;;;0.93;;
69900;SDS011;57183;50.930;5.406;2023-06-04T12:47:12;2.20;;;1.35;;
69900;SDS011;57183;50.930;5.406;2023-06-04T12:49:37;2.33;;;1.25;;
69900;SDS011;57183;50.930;5.406;2023-06-04T12:52:04;1.75;;;1.17;;
69900;SDS011;57183;50.930;5.406;2023-06-04T12:54:31;3.20;;;1.10;;
69900;SDS011;57183;50.930;5.406;2023-06-04T12:56:57;2.88;;;1.17;;
69900;SDS011;57183;50.930;5.406;2023-06-04T12:59:27;3.20;;;1.90;;
69900;SDS011;57183;50.930;5.406;2023-06-04T13:01:56;7.22;;;1.38;;
69900;SDS011;57183;50.930;5.406;2023-06-04T13:04:21;2.25;;;1.08;;
69900;SDS011;57183;50.930;5.406;2023-06-04T13:06:48;1.90;;;1.15;;
69900;SDS011;57183;50.930;5.406;2023-06-04T13:09:17;3.40;;;1.33;;
69900;SDS011;57183;50.930;5.406;2023-06-04T13:11:44;2.10;;;1.15;;
69900;SDS011;57183;50.930;5.406;2023-06-04T13:14:10;1.60;;;1.10;;
69900;SDS011;57183;50.930;5.406;2023-06-04T13:16:39;2.25;;;1.00;;
69900;SDS011;57183;50.930;5.406;2023-06-04T13:19:05;1.92;;;1.13;;
69900;SDS011;57183;50.930;5.406;2023-06-04T13:21:32;3.60;;;1.75;;
69900;SDS011;57183;50.930;5.406;2023-06-04T13:23:58;2.78;;;0.98;;
69900;SDS011;57183;50.930;5.406;2023-06-04T13:26:24;3.65;;;1.20;;
69900;SDS011;57183;50.930;5.406;2023-06-04T13:28:50;3.10;;;1.42;;
69900;SDS011;57183;50.930;5.406;2023-06-04T13:31:16;2.15;;;1.27;;
69900;SDS011;57183;50.930;5.406;2023-06-04T13:33:42;5.03;;;1.30;;
69900;SDS011;57183;50.930;5.406;2023-06-04T13:36:08;2.97;;;1.40;;
69900;SDS011;57183;50.930;5.406;2023-06-04T13:38:34;2.45;;;1.63;;
69900;SDS011;57183;50.930;5.406;2023-06-04T13:41:00;4.03;;;1.30;;
69900;SDS011;57183;50.930;5.406;2023-06-04T13:43:25;1.85;;;1.10;;
69900;SDS011;57183;50.930;5.406;2023-06-04T13:45:51;3.22;;;1.30;;
69900;SDS011;57183;50.930;5.406;2023-06-04T13:48:17;1.83;;;1.10;;
69900;SDS011;57183;50.930;5.406;2023-06-04T13:50:43;2.33;;;1.20;;
69900;SDS011;57183;50.930;5.406;2023-06-04T13:53:09;2.78;;;1.30;;
69900;SDS011;57183;50.930;5.406;2023-06-04T13:55:35;1.60;;;1.05;;
69900;SDS011;57183;50.930;5.406;2023-06-04T13:58:00;1.58;;;1.00;;
69900;SDS011;57183;50.930;5.406;2023-06-04T14:00:26;1.45;;;0.80;;
69900;SDS011;57183;50.930;5.406;2023-06-04T14:02:55;3.30;;;0.90;;
69900;SDS011;57183;50.930;5.406;2023-06-04T14:05:21;2.35;;;1.00;;
69900;SDS011;57183;50.930;5.406;2023-06-04T14:07:50;2.17;;;1.10;;
69900;SDS011;57183;50.930;5.406;2023-06-04T14:10:16;3.75;;;1.00;;
69900;SDS011;57183;50.930;5.406;2023-06-04T14:12:42;2.70;;;0.80;;
69900;SDS011;57183;50.930;5.406;2023-06-04T14:15:09;3.58;;;1.08;;
69900;SDS011;57183;50.930;5.406;2023-06-04T14:17:36;1.77;;;1.00;;
69900;SDS011;57183;50.930;5.406;2023-06-04T14:20:03;1.17;;;0.85;;
69900;SDS011;57183;50.930;5.406;2023-06-04T14:22:32;2.72;;;0.90;;
69900;SDS011;57183;50.930;5.406;2023-06-04T14:25:00;2.05;;;1.20;;
69900;SDS011;57183;50.930;5.406;2023-06-04T14:27:26;1.58;;;0.73;;
69900;SDS011;57183;50.930;5.406;2023-06-04T14:29:52;1.58;;;0.93;;
69900;SDS011;57183;50.930;5.406;2023-06-04T14:32:17;2.88;;;1.02;;
69900;SDS011;57183;50.930;5.406;2023-06-04T14:34:43;2.53;;;0.80;;
69900;SDS011;57183;50.930;5.406;2023-06-04T14:37:09;1.70;;;0.75;;
69900;SDS011;57183;50.930;5.406;2023-06-04T14:39:34;2.83;;;0.90;;
69900;SDS011;57183;50.930;5.406;2023-06-04T14:42:01;1.95;;;0.90;;
69900;SDS011;57183;50.930;5.406;2023-06-04T14:44:27;2.95;;;1.10;;
69900;SDS011;57183;50.930;5.406;2023-06-04T14:46:52;1.70;;;0.80;;
69900;SDS011;57183;50.930;5.406;2023-06-04T14:49:18;2.50;;;1.10;;
69900;SDS011;57183;50.930;5.406;2023-06-04T14:51:45;3.35;;;1.17;;
69900;SDS011;57183;50.930;5.406;2023-06-04T14:54:11;1.52;;;0.90;;
69900;SDS011;57183;50.930;5.406;2023-06-04T14:56:37;1.50;;;1.10;;
69900;SDS011;57183;50.930;5.406;2023-06-04T14:59:02;2.10;;;1.00;;
69900;SDS011;57183;50.930;5.406;2023-06-04T15:01:33;1.70;;;1.00;;
69900;SDS011;57183;50.930;5.406;2023-06-04T15:04:01;1.80;;;1.20;;
69900;SDS011;57183;50.930;5.406;2023-06-04T15:06:28;1.27;;;0.98;;
69900;SDS011;57183;50.930;5.406;2023-06-04T15:08:53;1.70;;;1.20;;
69900;SDS011;57183;50.930;5.406;2023-06-04T15:11:19;8.80;;;1.88;;
69900;SDS011;57183;50.930;5.406;2023-06-04T15:13:45;1.85;;;1.20;;
69900;SDS011;57183;50.930;5.406;2023-06-04T15:16:10;2.55;;;1.42;;
69900;SDS011;57183;50.930;5.406;2023-06-04T15:18:36;1.15;;;1.05;;
69900;SDS011;57183;50.930;5.406;2023-06-04T15:21:02;2.25;;;1.40;;
69900;SDS011;57183;50.930;5.406;2023-06-04T15:23:27;1.83;;;1.25;;
69900;SDS011;57183;50.930;5.406;2023-06-04T15:25:53;1.98;;;1.25;;